createdAt,value
2022-10-24T00:01:15.301Z,100.00
2022-10-24T00:06:37.236Z,100.00
2022-10-24T00:11:59.189Z,100.00
2022-10-24T00:17:21.044Z,100.00
2022-10-24T00:22:43.004Z,100.00
2022-10-24T00:28:05.174Z,100.00
2022-10-24T00:33:27.317Z,100.00
2022-10-24T00:38:50.778Z,100.00
2022-10-24T00:44:21.069Z,100.00
2022-10-24T00:49:45.890Z,100.00
2022-10-24T00:55:08.587Z,100.00
2022-10-24T01:00:33.562Z,100.00
2022-10-24T01:06:04.351Z,100.00
2022-10-24T01:11:48.002Z,100.00
2022-10-24T01:17:25.322Z,100.00
2022-10-24T01:22:49.844Z,100.00
2022-10-24T01:28:16.048Z,100.00
2022-10-24T01:33:46.018Z,100.00
2022-10-24T01:39:14.821Z,100.00
2022-10-24T01:44:44.424Z,100.00
2022-10-24T01:50:10.328Z,100.00
2022-10-24T01:55:32.983Z,100.00
2022-10-24T02:01:00.419Z,100.00
2022-10-24T02:06:28.363Z,100.00
2022-10-24T02:11:52.961Z,100.00
2022-10-24T02:17:15.633Z,100.00
2022-10-24T02:22:51.675Z,100.00
2022-10-24T02:28:18.362Z,100.00
2022-10-24T02:33:41.150Z,100.00
2022-10-24T02:39:07.389Z,100.00
2022-10-24T02:44:29.898Z,100.00
2022-10-24T02:49:51.994Z,100.00
2022-10-24T02:55:13.968Z,100.00
2022-10-24T03:00:35.896Z,100.00
2022-10-24T03:05:57.787Z,100.00
2022-10-24T03:11:19.697Z,100.00
2022-10-24T03:16:41.894Z,100.00
2022-10-24T03:22:03.843Z,100.00
2022-10-24T03:27:25.699Z,100.00
2022-10-24T03:32:47.919Z,100.00
2022-10-24T03:38:09.890Z,100.00
2022-10-24T03:43:31.838Z,100.00
2022-10-24T03:48:53.713Z,100.00
2022-10-24T03:54:15.630Z,100.00
2022-10-24T03:59:37.991Z,100.00
2022-10-24T04:04:59.798Z,100.00
2022-10-24T04:10:22.219Z,100.00
2022-10-24T04:15:44.051Z,100.00
2022-10-24T04:21:06.499Z,100.00
2022-10-24T04:26:28.619Z,100.00
2022-10-24T04:31:50.554Z,100.00
2022-10-24T04:37:12.384Z,100.00
2022-10-24T04:42:34.248Z,100.00
2022-10-24T04:47:56.064Z,100.00
2022-10-24T04:53:17.953Z,100.00
2022-10-24T04:58:39.817Z,100.00
2022-10-24T05:09:28.691Z,100.00
2022-10-24T05:14:50.518Z,100.00
2022-10-24T05:20:12.528Z,100.00
2022-10-24T05:25:34.400Z,100.00
2022-10-24T05:30:56.508Z,100.00
2022-10-24T05:36:18.342Z,100.00
2022-10-24T05:41:44.681Z,100.00
2022-10-24T05:47:08.932Z,100.00
2022-10-24T05:52:30.740Z,100.00
2022-10-24T05:57:52.618Z,100.00
2022-10-24T06:03:14.496Z,100.00
2022-10-24T06:08:37.681Z,100.00
2022-10-24T06:13:59.536Z,100.00
2022-10-24T06:19:21.366Z,100.00
2022-10-24T06:24:43.207Z,100.00
2022-10-24T06:30:06.392Z,100.00
2022-10-24T06:35:28.267Z,100.00
2022-10-24T06:40:50.103Z,100.00
2022-10-24T06:46:14.941Z,100.00
2022-10-24T06:51:36.762Z,100.00
2022-10-24T06:56:58.582Z,100.00
2022-10-24T07:02:20.911Z,100.00
2022-10-24T07:07:43.765Z,100.00
2022-10-24T07:13:05.832Z,100.00
2022-10-24T07:18:27.849Z,100.00
2022-10-24T07:23:51.193Z,100.00
2022-10-24T07:29:13.042Z,100.00
2022-10-24T07:34:34.892Z,100.00
2022-10-24T07:39:56.791Z,100.00
2022-10-24T07:45:18.637Z,100.00
2022-10-24T07:50:46.008Z,100.00
2022-10-24T07:56:08.734Z,100.00
2022-10-24T08:01:30.602Z,100.00
2022-10-24T08:06:52.699Z,100.00
2022-10-24T08:12:14.528Z,100.00
2022-10-24T08:17:36.530Z,100.00
2022-10-24T08:22:58.415Z,100.00
2022-10-24T08:28:20.748Z,100.00
2022-10-24T08:33:43.578Z,100.00
2022-10-24T08:39:05.648Z,100.00
2022-10-24T08:44:42.958Z,100.00
2022-10-24T08:50:32.449Z,100.00
2022-10-24T08:55:57.271Z,100.00
2022-10-24T09:01:33.082Z,100.00
2022-10-24T09:06:55.776Z,100.00
2022-10-24T09:12:20.674Z,100.00
2022-10-24T09:17:43.998Z,100.00
2022-10-24T09:23:06.520Z,100.00
2022-10-24T09:28:28.462Z,97.52
2022-10-24T09:33:51.930Z,87.87
2022-10-24T09:39:30.863Z,88.39
2022-10-24T09:44:57.486Z,94.08
2022-10-24T09:50:22.236Z,97.49
2022-10-24T09:55:45.205Z,97.56
2022-10-24T10:01:20.477Z,94.11
2022-10-24T10:06:48.467Z,95.42
2022-10-24T10:12:27.121Z,92.65
2022-10-24T10:17:55.157Z,94.38
2022-10-24T10:23:33.016Z,94.95
2022-10-24T10:29:25.729Z,97.87
2022-10-24T10:34:57.756Z,98.24
2022-10-24T10:40:28.629Z,95.34
2022-10-24T10:46:12.211Z,91.55
2022-10-24T10:51:45.798Z,91.90
2022-10-24T10:57:21.801Z,90.44
2022-10-24T11:03:07.269Z,94.30
2022-10-24T11:08:35.123Z,93.99
2022-10-24T11:14:18.626Z,93.58
2022-10-24T11:19:49.909Z,92.12
2022-10-24T11:25:31.462Z,91.36
2022-10-24T11:31:08.075Z,90.74
2022-10-24T11:36:45.109Z,90.86
2022-10-24T11:42:16.376Z,92.39
2022-10-24T11:48:05.052Z,91.00
2022-10-24T11:53:29.622Z,90.79
2022-10-24T11:58:59.557Z,90.07
2022-10-24T12:04:55.005Z,87.53
2022-10-24T12:10:25.986Z,87.52
2022-10-24T12:16:05.962Z,87.33
2022-10-24T12:21:37.678Z,84.74
2022-10-24T12:27:03.197Z,85.83
2022-10-24T12:32:31.192Z,85.26
2022-10-24T12:37:54.296Z,85.51
2022-10-24T12:43:48.422Z,85.26
2022-10-24T12:49:10.158Z,85.72
2022-10-24T12:54:40.701Z,85.69
2022-10-24T13:00:21.943Z,86.32
2022-10-24T13:06:18.946Z,86.26
2022-10-24T13:12:31.272Z,85.69
2022-10-24T13:18:06.467Z,86.27
2022-10-24T13:23:29.135Z,86.50
2022-10-24T13:28:51.259Z,86.16
2022-10-24T13:34:17.908Z,85.27
2022-10-24T13:39:46.703Z,84.04
2022-10-24T13:45:20.530Z,83.63
2022-10-24T13:51:08.243Z,83.48
2022-10-24T13:56:35.403Z,84.31
2022-10-24T14:02:00.275Z,84.32
2022-10-24T14:07:27.621Z,84.32
2022-10-24T14:12:49.565Z,84.74
2022-10-24T14:18:13.782Z,84.79
2022-10-24T14:23:38.779Z,85.33
2022-10-24T14:29:00.691Z,86.09
2022-10-24T14:34:23.451Z,86.80
2022-10-24T14:39:45.462Z,87.43
2022-10-24T14:45:31.442Z,87.81
2022-10-24T14:50:53.315Z,89.79
2022-10-24T14:56:24.330Z,89.84
2022-10-24T15:02:00.796Z,90.62
2022-10-24T15:07:22.569Z,95.04
2022-10-24T15:12:56.522Z,93.18
2022-10-24T15:18:25.700Z,93.91
2022-10-24T15:23:59.403Z,94.94
2022-10-24T15:29:23.283Z,95.73
2022-10-24T15:34:45.449Z,96.42
2022-10-24T15:40:31.836Z,96.91
2022-10-24T15:45:53.616Z,100.00
2022-10-24T15:51:17.377Z,99.44
2022-10-24T15:56:39.254Z,100.00
2022-10-24T16:02:01.869Z,100.00
2022-10-24T16:07:23.767Z,100.00
2022-10-24T16:12:46.043Z,100.00
2022-10-24T16:18:09.010Z,100.00
2022-10-24T16:23:32.406Z,100.00
2022-10-24T16:28:55.143Z,100.00
2022-10-24T16:34:17.091Z,100.00
2022-10-24T16:39:38.952Z,100.00
2022-10-24T16:45:00.790Z,100.00
2022-10-24T16:50:26.849Z,100.00
2022-10-24T16:55:53.511Z,100.00
2022-10-24T17:01:15.785Z,100.00
2022-10-24T17:06:37.843Z,100.00
2022-10-24T17:11:59.833Z,100.00
2022-10-24T17:17:21.815Z,100.00
2022-10-24T17:22:45.585Z,100.00
2022-10-24T17:28:07.548Z,100.00
2022-10-24T17:33:29.706Z,100.00
2022-10-24T17:39:30.857Z,100.00
2022-10-24T17:44:52.831Z,100.00
2022-10-24T17:50:15.649Z,100.00
2022-10-24T17:55:52.744Z,100.00
2022-10-24T18:01:14.610Z,100.00
2022-10-24T18:06:39.452Z,100.00
2022-10-24T18:12:05.274Z,100.00
2022-10-24T18:17:28.019Z,100.00
2022-10-24T18:22:50.637Z,100.00
2022-10-24T18:28:12.490Z,100.00
2022-10-24T18:33:34.380Z,100.00
2022-10-24T18:38:57.639Z,100.00
2022-10-24T18:44:25.511Z,100.00
2022-10-24T18:49:48.397Z,100.00
2022-10-24T18:55:22.508Z,100.00
2022-10-24T19:00:45.737Z,100.00
2022-10-24T19:06:34.598Z,100.00
2022-10-24T19:11:56.631Z,100.00
2022-10-24T19:17:19.849Z,100.00
2022-10-24T19:22:41.786Z,100.00
2022-10-24T19:28:03.695Z,100.00
2022-10-24T19:33:25.539Z,100.00
2022-10-24T19:38:47.400Z,100.00
2022-10-24T19:44:10.618Z,100.00
2022-10-24T19:49:32.405Z,100.00
2022-10-24T19:54:54.213Z,100.00
2022-10-24T20:00:16.295Z,100.00
2022-10-24T20:05:38.140Z,100.00
2022-10-24T20:11:00.089Z,100.00
2022-10-24T20:16:22.481Z,100.00
2022-10-24T20:21:44.402Z,100.00
2022-10-24T20:32:33.022Z,100.00
2022-10-24T20:37:54.903Z,100.00
2022-10-24T20:43:17.521Z,100.00
2022-10-24T20:48:39.434Z,100.00
2022-10-24T20:54:01.413Z,100.00
2022-10-24T20:59:23.241Z,100.00
2022-10-24T21:04:47.031Z,100.00
2022-10-24T21:10:10.105Z,100.00
2022-10-24T21:15:31.992Z,100.00
2022-10-24T21:20:53.853Z,100.00
2022-10-24T21:26:15.661Z,100.00
2022-10-24T21:31:37.533Z,100.00
2022-10-24T21:37:00.466Z,100.00
2022-10-24T21:42:25.119Z,100.00
2022-10-24T21:47:46.939Z,100.00
2022-10-24T21:53:09.654Z,100.00
2022-10-24T21:58:32.477Z,100.00
2022-10-24T22:03:55.353Z,100.00
2022-10-24T22:09:20.540Z,100.00
2022-10-24T22:14:42.388Z,100.00
2022-10-24T22:20:04.560Z,100.00
2022-10-24T22:25:26.392Z,100.00
2022-10-24T22:30:48.649Z,100.00
2022-10-24T22:36:16.172Z,100.00
2022-10-24T22:41:38.429Z,100.00
2022-10-24T22:47:12.213Z,100.00
2022-10-24T22:52:34.311Z,100.00
2022-10-24T22:57:56.373Z,100.00
2022-10-24T23:03:21.152Z,100.00
2022-10-24T23:08:44.292Z,100.00
2022-10-24T23:14:06.638Z,100.00
2022-10-24T23:19:30.462Z,100.00
2022-10-24T23:24:57.523Z,100.00
2022-10-24T23:30:22.465Z,100.00
2022-10-24T23:35:44.579Z,100.00
2022-10-24T23:41:10.729Z,100.00
2022-10-24T23:46:45.054Z,100.00
2022-10-24T23:52:23.634Z,100.00
2022-10-24T23:57:45.758Z,100.00
